sensor_id;sensor_type;location;lat;lon;timestamp;temperature;humidity
24158;DHT22;12316;50.904;4.200;2022-11-03T00:02:24;13.90;99.90
24158;DHT22;12316;50.904;4.200;2022-11-03T00:04:49;13.90;99.90
24158;DHT22;12316;50.904;4.200;2022-11-03T00:07:21;13.90;99.90
24158;DHT22;12316;50.904;4.200;2022-11-03T00:09:47;13.90;99.90
24158;DHT22;12316;50.904;4.200;2022-11-03T00:12:13;13.90;99.90
24158;DHT22;12316;50.904;4.200;2022-11-03T00:14:38;13.90;99.90
24158;DHT22;12316;50.904;4.200;2022-11-03T00:17:04;13.90;99.90
24158;DHT22;12316;50.904;4.200;2022-11-03T00:19:29;14.00;99.90
24158;DHT22;12316;50.904;4.200;2022-11-03T00:21:55;13.90;99.90
24158;DHT22;12316;50.904;4.200;2022-11-03T00:24:23;13.90;99.90
24158;DHT22;12316;50.904;4.200;2022-11-03T00:26:49;13.90;99.90
24158;DHT22;12316;50.904;4.200;2022-11-03T00:29:14;13.90;99.90
24158;DHT22;12316;50.904;4.200;2022-11-03T00:31:42;13.90;99.90
24158;DHT22;12316;50.904;4.200;2022-11-03T00:34:08;13.90;99.90
24158;DHT22;12316;50.904;4.200;2022-11-03T00:36:35;13.80;99.90
24158;DHT22;12316;50.904;4.200;2022-11-03T00:39:02;13.90;99.90
24158;DHT22;12316;50.904;4.200;2022-11-03T00:41:28;13.90;99.90
24158;DHT22;12316;50.904;4.200;2022-11-03T00:43:54;13.90;99.90
24158;DHT22;12316;50.904;4.200;2022-11-03T00:46:21;13.90;99.90
24158;DHT22;12316;50.904;4.200;2022-11-03T00:48:47;13.90;99.90
24158;DHT22;12316;50.904;4.200;2022-11-03T00:53:51;13.90;99.90
24158;DHT22;12316;50.904;4.200;2022-11-03T00:56:33;13.90;99.90
24158;DHT22;12316;50.904;4.200;2022-11-03T00:59:00;13.90;99.90
24158;DHT22;12316;50.904;4.200;2022-11-03T01:01:28;13.90;99.90
24158;DHT22;12316;50.904;4.200;2022-11-03T01:03:57;13.90;99.90
24158;DHT22;12316;50.904;4.200;2022-11-03T01:06:43;13.80;99.90
24158;DHT22;12316;50.904;4.200;2022-11-03T01:09:22;13.90;99.90
24158;DHT22;12316;50.904;4.200;2022-11-03T01:14:50;13.80;99.90
24158;DHT22;12316;50.904;4.200;2022-11-03T01:17:23;13.80;99.90
24158;DHT22;12316;50.904;4.200;2022-11-03T01:19:49;13.80;99.90
24158;DHT22;12316;50.904;4.200;2022-11-03T01:22:16;13.80;99.90
24158;DHT22;12316;50.904;4.200;2022-11-03T01:24:42;13.80;99.90
24158;DHT22;12316;50.904;4.200;2022-11-03T01:27:19;13.80;99.90
24158;DHT22;12316;50.904;4.200;2022-11-03T01:29:45;13.80;99.90
24158;DHT22;12316;50.904;4.200;2022-11-03T01:32:11;13.80;99.90
24158;DHT22;12316;50.904;4.200;2022-11-03T01:34:37;13.80;99.90
24158;DHT22;12316;50.904;4.200;2022-11-03T01:37:03;13.90;99.90
24158;DHT22;12316;50.904;4.200;2022-11-03T01:39:29;13.90;99.90
24158;DHT22;12316;50.904;4.200;2022-11-03T01:41:54;13.80;99.90
24158;DHT22;12316;50.904;4.200;2022-11-03T01:44:32;13.90;99.90
24158;DHT22;12316;50.904;4.200;2022-11-03T01:47:11;13.80;99.90
24158;DHT22;12316;50.904;4.200;2022-11-03T01:49:54;13.90;99.90
24158;DHT22;12316;50.904;4.200;2022-11-03T01:52:27;13.90;99.90
24158;DHT22;12316;50.904;4.200;2022-11-03T01:54:59;13.90;99.90
24158;DHT22;12316;50.904;4.200;2022-11-03T01:57:31;14.00;99.90
24158;DHT22;12316;50.904;4.200;2022-11-03T01:59:59;14.00;99.90
24158;DHT22;12316;50.904;4.200;2022-11-03T02:02:25;13.90;99.90
24158;DHT22;12316;50.904;4.200;2022-11-03T02:04:52;13.90;99.90
24158;DHT22;12316;50.904;4.200;2022-11-03T02:09:49;13.90;99.90
24158;DHT22;12316;50.904;4.200;2022-11-03T02:12:15;13.90;99.90
24158;DHT22;12316;50.904;4.200;2022-11-03T02:14:59;13.90;99.90
24158;DHT22;12316;50.904;4.200;2022-11-03T02:17:28;13.90;99.90
24158;DHT22;12316;50.904;4.200;2022-11-03T02:20:04;14.00;99.90
24158;DHT22;12316;50.904;4.200;2022-11-03T02:22:55;13.90;99.90
24158;DHT22;12316;50.904;4.200;2022-11-03T02:25:46;13.90;99.90
24158;DHT22;12316;50.904;4.200;2022-11-03T02:28:18;13.90;99.90
24158;DHT22;12316;50.904;4.200;2022-11-03T02:33:47;13.90;99.90
24158;DHT22;12316;50.904;4.200;2022-11-03T02:39:12;13.80;99.90
24158;DHT22;12316;50.904;4.200;2022-11-03T02:41:39;13.80;99.90
24158;DHT22;12316;50.904;4.200;2022-11-03T02:44:12;13.80;99.90
24158;DHT22;12316;50.904;4.200;2022-11-03T02:46:41;13.80;99.90
24158;DHT22;12316;50.904;4.200;2022-11-03T02:49:07;13.90;99.90
24158;DHT22;12316;50.904;4.200;2022-11-03T02:51:33;13.80;99.90
24158;DHT22;12316;50.904;4.200;2022-11-03T02:54:15;13.90;99.90
24158;DHT22;12316;50.904;4.200;2022-11-03T02:56:51;13.90;99.90
24158;DHT22;12316;50.904;4.200;2022-11-03T02:59:22;13.90;99.90
24158;DHT22;12316;50.904;4.200;2022-11-03T03:02:10;14.00;99.90
24158;DHT22;12316;50.904;4.200;2022-11-03T03:04:39;14.00;99.90
24158;DHT22;12316;50.904;4.200;2022-11-03T03:07:12;14.00;99.90
24158;DHT22;12316;50.904;4.200;2022-11-03T03:09:48;14.00;99.90
24158;DHT22;12316;50.904;4.200;2022-11-03T03:12:18;14.00;99.90
24158;DHT22;12316;50.904;4.200;2022-11-03T03:14:46;14.00;99.90
24158;DHT22;12316;50.904;4.200;2022-11-03T03:17:31;14.10;99.90
24158;DHT22;12316;50.904;4.200;2022-11-03T03:22:48;14.00;99.90
24158;DHT22;12316;50.904;4.200;2022-11-03T03:27:54;14.10;99.90
24158;DHT22;12316;50.904;4.200;2022-11-03T03:30:21;14.00;99.90
24158;DHT22;12316;50.904;4.200;2022-11-03T03:32:49;14.10;99.90
24158;DHT22;12316;50.904;4.200;2022-11-03T03:35:19;14.10;99.90
24158;DHT22;12316;50.904;4.200;2022-11-03T03:37:50;14.10;99.90
24158;DHT22;12316;50.904;4.200;2022-11-03T03:40:21;14.10;99.90
24158;DHT22;12316;50.904;4.200;2022-11-03T03:42:50;14.00;99.90
24158;DHT22;12316;50.904;4.200;2022-11-03T03:45:17;14.10;99.90
24158;DHT22;12316;50.904;4.200;2022-11-03T03:47:43;14.00;99.90
24158;DHT22;12316;50.904;4.200;2022-11-03T03:50:09;14.10;99.90
24158;DHT22;12316;50.904;4.200;2022-11-03T03:52:36;14.10;99.90
24158;DHT22;12316;50.904;4.200;2022-11-03T03:55:02;14.10;99.90
24158;DHT22;12316;50.904;4.200;2022-11-03T03:57:30;14.10;99.90
24158;DHT22;12316;50.904;4.200;2022-11-03T03:59:56;14.10;99.90
24158;DHT22;12316;50.904;4.200;2022-11-03T04:02:22;14.10;99.90
24158;DHT22;12316;50.904;4.200;2022-11-03T04:04:47;14.10;99.90
24158;DHT22;12316;50.904;4.200;2022-11-03T04:07:13;14.00;99.90
24158;DHT22;12316;50.904;4.200;2022-11-03T04:09:57;14.10;99.90
24158;DHT22;12316;50.904;4.200;2022-11-03T04:12:23;14.10;99.90
24158;DHT22;12316;50.904;4.200;2022-11-03T04:15:11;14.10;99.90
24158;DHT22;12316;50.904;4.200;2022-11-03T04:17:55;14.10;99.90
24158;DHT22;12316;50.904;4.200;2022-11-03T04:20:39;14.10;99.90
24158;DHT22;12316;50.904;4.200;2022-11-03T04:23:23;14.10;99.90
24158;DHT22;12316;50.904;4.200;2022-11-03T04:25:53;14.10;99.90
24158;DHT22;12316;50.904;4.200;2022-11-03T04:28:19;14.10;99.90
24158;DHT22;12316;50.904;4.200;2022-11-03T04:30:46;14.10;99.90
24158;DHT22;12316;50.904;4.200;2022-11-03T04:33:19;14.10;99.90
24158;DHT22;12316;50.904;4.200;2022-11-03T04:35:46;14.10;99.90
24158;DHT22;12316;50.904;4.200;2022-11-03T04:40:44;14.20;99.90
24158;DHT22;12316;50.904;4.200;2022-11-03T04:43:14;14.20;99.90
24158;DHT22;12316;50.904;4.200;2022-11-03T04:45:42;14.20;99.90
24158;DHT22;12316;50.904;4.200;2022-11-03T04:50:39;14.30;99.90
24158;DHT22;12316;50.904;4.200;2022-11-03T04:53:11;14.20;99.90
24158;DHT22;12316;50.904;4.200;2022-11-03T04:55:40;14.30;99.90
24158;DHT22;12316;50.904;4.200;2022-11-03T04:58:16;14.20;99.90
24158;DHT22;12316;50.904;4.200;2022-11-03T05:00:42;14.30;99.90
24158;DHT22;12316;50.904;4.200;2022-11-03T05:03:20;14.20;99.90
24158;DHT22;12316;50.904;4.200;2022-11-03T05:05:47;14.30;99.90
24158;DHT22;12316;50.904;4.200;2022-11-03T05:08:16;14.30;99.90
24158;DHT22;12316;50.904;4.200;2022-11-03T05:10:41;14.30;99.90
24158;DHT22;12316;50.904;4.200;2022-11-03T05:13:26;14.30;99.90
24158;DHT22;12316;50.904;4.200;2022-11-03T05:16:02;14.30;99.90
24158;DHT22;12316;50.904;4.200;2022-11-03T05:18:31;14.40;99.90
24158;DHT22;12316;50.904;4.200;2022-11-03T05:21:04;14.40;99.90
24158;DHT22;12316;50.904;4.200;2022-11-03T05:23:35;14.40;99.90
24158;DHT22;12316;50.904;4.200;2022-11-03T05:26:04;14.40;99.90
24158;DHT22;12316;50.904;4.200;2022-11-03T05:28:34;14.40;99.90
24158;DHT22;12316;50.904;4.200;2022-11-03T05:31:14;14.40;99.90
24158;DHT22;12316;50.904;4.200;2022-11-03T05:33:44;14.50;99.90
24158;DHT22;12316;50.904;4.200;2022-11-03T05:36:13;14.40;99.90
24158;DHT22;12316;50.904;4.200;2022-11-03T05:38:41;14.50;99.90
24158;DHT22;12316;50.904;4.200;2022-11-03T05:41:21;14.50;99.90
24158;DHT22;12316;50.904;4.200;2022-11-03T05:43:57;14.50;99.90
24158;DHT22;12316;50.904;4.200;2022-11-03T05:46:28;14.50;99.90
24158;DHT22;12316;50.904;4.200;2022-11-03T05:48:54;14.50;99.90
24158;DHT22;12316;50.904;4.200;2022-11-03T05:51:24;14.60;99.90
24158;DHT22;12316;50.904;4.200;2022-11-03T05:53:55;14.60;99.90
24158;DHT22;12316;50.904;4.200;2022-11-03T05:56:23;14.60;99.90
24158;DHT22;12316;50.904;4.200;2022-11-03T05:58:51;14.60;99.90
24158;DHT22;12316;50.904;4.200;2022-11-03T06:01:32;14.60;99.90
24158;DHT22;12316;50.904;4.200;2022-11-03T06:03:59;14.70;99.90
24158;DHT22;12316;50.904;4.200;2022-11-03T06:06:31;14.70;99.90
24158;DHT22;12316;50.904;4.200;2022-11-03T06:09:01;14.70;99.90
24158;DHT22;12316;50.904;4.200;2022-11-03T06:11:30;14.70;99.90
24158;DHT22;12316;50.904;4.200;2022-11-03T06:13:56;14.60;99.90
24158;DHT22;12316;50.904;4.200;2022-11-03T06:16:41;14.60;99.90
24158;DHT22;12316;50.904;4.200;2022-11-03T06:20:00;14.60;99.90
24158;DHT22;12316;50.904;4.200;2022-11-03T06:22:18;14.60;99.90
24158;DHT22;12316;50.904;4.200;2022-11-03T06:24:45;14.70;99.90
24158;DHT22;12316;50.904;4.200;2022-11-03T06:27:17;14.70;99.90
24158;DHT22;12316;50.904;4.200;2022-11-03T06:29:45;14.70;99.90
24158;DHT22;12316;50.904;4.200;2022-11-03T06:32:12;14.70;99.90
24158;DHT22;12316;50.904;4.200;2022-11-03T06:34:52;14.70;99.90
24158;DHT22;12316;50.904;4.200;2022-11-03T06:37:22;14.70;99.90
24158;DHT22;12316;50.904;4.200;2022-11-03T06:39:48;14.60;99.90
24158;DHT22;12316;50.904;4.200;2022-11-03T06:42:15;14.60;99.90
24158;DHT22;12316;50.904;4.200;2022-11-03T06:44:46;14.60;99.90
24158;DHT22;12316;50.904;4.200;2022-11-03T06:49:50;14.60;99.90
24158;DHT22;12316;50.904;4.200;2022-11-03T06:57:36;14.60;99.90
24158;DHT22;12316;50.904;4.200;2022-11-03T07:05:20;14.60;99.90
24158;DHT22;12316;50.904;4.200;2022-11-03T07:07:46;14.60;99.90
24158;DHT22;12316;50.904;4.200;2022-11-03T07:10:12;14.60;99.90
24158;DHT22;12316;50.904;4.200;2022-11-03T07:12:38;14.60;99.90
24158;DHT22;12316;50.904;4.200;2022-11-03T07:15:19;14.70;99.90
24158;DHT22;12316;50.904;4.200;2022-11-03T07:17:45;14.60;99.90
24158;DHT22;12316;50.904;4.200;2022-11-03T07:20:15;14.60;99.90
24158;DHT22;12316;50.904;4.200;2022-11-03T07:22:43;14.60;99.90
24158;DHT22;12316;50.904;4.200;2022-11-03T07:25:19;14.60;99.90
24158;DHT22;12316;50.904;4.200;2022-11-03T07:27:49;14.60;99.90
24158;DHT22;12316;50.904;4.200;2022-11-03T07:32:41;14.60;99.90
24158;DHT22;12316;50.904;4.200;2022-11-03T07:37:42;14.60;99.90
24158;DHT22;12316;50.904;4.200;2022-11-03T07:40:34;14.70;99.90
24158;DHT22;12316;50.904;4.200;2022-11-03T07:45:54;14.70;99.90
24158;DHT22;12316;50.904;4.200;2022-11-03T07:50:49;14.80;99.90
24158;DHT22;12316;50.904;4.200;2022-11-03T07:55:58;14.80;99.90
24158;DHT22;12316;50.904;4.200;2022-11-03T07:58:44;14.80;99.90
24158;DHT22;12316;50.904;4.200;2022-11-03T08:01:31;14.90;99.90
24158;DHT22;12316;50.904;4.200;2022-11-03T08:04:07;15.00;99.90
24158;DHT22;12316;50.904;4.200;2022-11-03T08:06:34;14.90;99.90
24158;DHT22;12316;50.904;4.200;2022-11-03T08:09:00;15.00;99.90
24158;DHT22;12316;50.904;4.200;2022-11-03T08:11:25;15.00;99.90
24158;DHT22;12316;50.904;4.200;2022-11-03T08:13:51;15.00;99.90
24158;DHT22;12316;50.904;4.200;2022-11-03T08:16:18;15.00;99.90
24158;DHT22;12316;50.904;4.200;2022-11-03T08:18:44;15.00;99.90
24158;DHT22;12316;50.904;4.200;2022-11-03T08:21:10;15.10;99.90
24158;DHT22;12316;50.904;4.200;2022-11-03T08:23:37;15.10;99.90
24158;DHT22;12316;50.904;4.200;2022-11-03T08:26:03;15.10;99.90
24158;DHT22;12316;50.904;4.200;2022-11-03T08:28:29;15.20;99.90
24158;DHT22;12316;50.904;4.200;2022-11-03T08:30:55;15.20;99.90
24158;DHT22;12316;50.904;4.200;2022-11-03T08:33:26;15.20;99.90
24158;DHT22;12316;50.904;4.200;2022-11-03T08:35:53;15.20;99.90
24158;DHT22;12316;50.904;4.200;2022-11-03T08:38:18;15.20;99.90
24158;DHT22;12316;50.904;4.200;2022-11-03T08:40:44;15.20;99.90
24158;DHT22;12316;50.904;4.200;2022-11-03T08:43:09;15.30;99.90
24158;DHT22;12316;50.904;4.200;2022-11-03T08:45:35;15.20;99.90
24158;DHT22;12316;50.904;4.200;2022-11-03T08:48:00;15.20;99.90
24158;DHT22;12316;50.904;4.200;2022-11-03T08:50:26;15.20;99.90
24158;DHT22;12316;50.904;4.200;2022-11-03T08:52:52;15.20;99.90
24158;DHT22;12316;50.904;4.200;2022-11-03T08:55:17;15.20;99.90
24158;DHT22;12316;50.904;4.200;2022-11-03T08:57:43;15.20;99.90
24158;DHT22;12316;50.904;4.200;2022-11-03T09:00:09;15.30;99.90
24158;DHT22;12316;50.904;4.200;2022-11-03T09:02:35;15.20;99.90
24158;DHT22;12316;50.904;4.200;2022-11-03T09:05:00;15.10;99.90
24158;DHT22;12316;50.904;4.200;2022-11-03T09:07:26;15.00;99.90
24158;DHT22;12316;50.904;4.200;2022-11-03T09:09:52;15.00;99.90
24158;DHT22;12316;50.904;4.200;2022-11-03T09:12:17;15.10;99.90
24158;DHT22;12316;50.904;4.200;2022-11-03T09:14:43;15.20;99.90
24158;DHT22;12316;50.904;4.200;2022-11-03T09:17:09;15.30;99.90
24158;DHT22;12316;50.904;4.200;2022-11-03T09:19:35;15.30;99.90
24158;DHT22;12316;50.904;4.200;2022-11-03T09:22:00;15.40;99.90
24158;DHT22;12316;50.904;4.200;2022-11-03T09:24:26;15.50;99.90
24158;DHT22;12316;50.904;4.200;2022-11-03T09:26:51;15.40;99.90
24158;DHT22;12316;50.904;4.200;2022-11-03T09:29:17;15.60;99.90
24158;DHT22;12316;50.904;4.200;2022-11-03T09:31:43;15.80;99.90
24158;DHT22;12316;50.904;4.200;2022-11-03T09:34:09;15.90;99.90
24158;DHT22;12316;50.904;4.200;2022-11-03T09:36:34;16.00;99.90
24158;DHT22;12316;50.904;4.200;2022-11-03T09:39:01;16.20;99.90
24158;DHT22;12316;50.904;4.200;2022-11-03T09:41:27;16.40;99.90
24158;DHT22;12316;50.904;4.200;2022-11-03T09:43:55;16.70;99.90
24158;DHT22;12316;50.904;4.200;2022-11-03T09:46:21;16.80;99.90
24158;DHT22;12316;50.904;4.200;2022-11-03T09:48:47;16.90;99.90
24158;DHT22;12316;50.904;4.200;2022-11-03T09:51:18;16.90;99.90
24158;DHT22;12316;50.904;4.200;2022-11-03T09:53:44;16.90;99.90
24158;DHT22;12316;50.904;4.200;2022-11-03T09:56:10;17.00;99.90
24158;DHT22;12316;50.904;4.200;2022-11-03T09:58:36;17.10;99.90
24158;DHT22;12316;50.904;4.200;2022-11-03T10:01:01;17.10;99.90
24158;DHT22;12316;50.904;4.200;2022-11-03T10:03:27;17.30;99.90
24158;DHT22;12316;50.904;4.200;2022-11-03T10:05:54;17.40;99.90
24158;DHT22;12316;50.904;4.200;2022-11-03T10:08:28;17.40;99.90
24158;DHT22;12316;50.904;4.200;2022-11-03T10:10:55;17.40;99.90
24158;DHT22;12316;50.904;4.200;2022-11-03T10:13:57;17.50;99.90
24158;DHT22;12316;50.904;4.200;2022-11-03T10:16:24;17.40;99.90
24158;DHT22;12316;50.904;4.200;2022-11-03T10:18:51;17.50;99.90
24158;DHT22;12316;50.904;4.200;2022-11-03T10:21:19;17.50;99.90
24158;DHT22;12316;50.904;4.200;2022-11-03T10:23:45;17.50;99.90
24158;DHT22;12316;50.904;4.200;2022-11-03T10:26:17;17.50;99.90
24158;DHT22;12316;50.904;4.200;2022-11-03T10:29:03;17.50;99.90
24158;DHT22;12316;50.904;4.200;2022-11-03T10:31:39;17.60;99.90
24158;DHT22;12316;50.904;4.200;2022-11-03T10:37:16;17.60;99.90
24158;DHT22;12316;50.904;4.200;2022-11-03T10:39:43;17.40;99.90
24158;DHT22;12316;50.904;4.200;2022-11-03T10:42:25;17.30;99.90
24158;DHT22;12316;50.904;4.200;2022-11-03T10:44:53;17.30;99.90
24158;DHT22;12316;50.904;4.200;2022-11-03T10:47:33;17.40;99.90
24158;DHT22;12316;50.904;4.200;2022-11-03T10:50:22;17.50;99.90
24158;DHT22;12316;50.904;4.200;2022-11-03T10:52:49;17.60;99.90
24158;DHT22;12316;50.904;4.200;2022-11-03T10:55:17;17.70;99.90
24158;DHT22;12316;50.904;4.200;2022-11-03T10:57:43;17.70;99.90
24158;DHT22;12316;50.904;4.200;2022-11-03T11:00:13;17.70;99.90
24158;DHT22;12316;50.904;4.200;2022-11-03T11:02:40;17.80;99.90
24158;DHT22;12316;50.904;4.200;2022-11-03T11:05:17;17.70;99.90
24158;DHT22;12316;50.904;4.200;2022-11-03T11:07:44;17.70;99.90
24158;DHT22;12316;50.904;4.200;2022-11-03T11:10:22;17.60;99.90
24158;DHT22;12316;50.904;4.200;2022-11-03T11:15:48;17.80;99.90
24158;DHT22;12316;50.904;4.200;2022-11-03T11:20:52;17.80;99.90
24158;DHT22;12316;50.904;4.200;2022-11-03T11:28:41;17.80;99.90
24158;DHT22;12316;50.904;4.200;2022-11-03T11:42:06;17.90;99.90
24158;DHT22;12316;50.904;4.200;2022-11-03T11:44:52;18.10;99.90
24158;DHT22;12316;50.904;4.200;2022-11-03T11:52:41;18.10;99.90
24158;DHT22;12316;50.904;4.200;2022-11-03T11:55:39;18.10;99.90
24158;DHT22;12316;50.904;4.200;2022-11-03T11:58:36;18.00;99.90
24158;DHT22;12316;50.904;4.200;2022-11-03T12:04:27;18.10;99.90
24158;DHT22;12316;50.904;4.200;2022-11-03T12:06:45;18.20;99.90
24158;DHT22;12316;50.904;4.200;2022-11-03T12:12:03;18.40;99.90
24158;DHT22;12316;50.904;4.200;2022-11-03T12:19:51;18.60;99.90
24158;DHT22;12316;50.904;4.200;2022-11-03T12:24:53;18.60;99.90
24158;DHT22;12316;50.904;4.200;2022-11-03T12:29:51;18.50;99.90
24158;DHT22;12316;50.904;4.200;2022-11-03T12:32:17;18.50;99.90
24158;DHT22;12316;50.904;4.200;2022-11-03T12:34:43;18.40;99.90
24158;DHT22;12316;50.904;4.200;2022-11-03T12:37:09;18.50;99.90
24158;DHT22;12316;50.904;4.200;2022-11-03T12:39:35;18.40;99.90
24158;DHT22;12316;50.904;4.200;2022-11-03T12:42:00;18.30;99.90
24158;DHT22;12316;50.904;4.200;2022-11-03T12:44:26;18.30;99.90
24158;DHT22;12316;50.904;4.200;2022-11-03T12:46:52;18.20;99.90
24158;DHT22;12316;50.904;4.200;2022-11-03T12:49:17;18.10;99.90
24158;DHT22;12316;50.904;4.200;2022-11-03T12:51:43;18.00;99.90
24158;DHT22;12316;50.904;4.200;2022-11-03T12:54:08;17.90;99.90
24158;DHT22;12316;50.904;4.200;2022-11-03T12:56:34;17.70;99.90
24158;DHT22;12316;50.904;4.200;2022-11-03T12:59:00;17.50;99.90
24158;DHT22;12316;50.904;4.200;2022-11-03T13:01:25;17.40;99.90
24158;DHT22;12316;50.904;4.200;2022-11-03T13:03:51;17.20;99.90
24158;DHT22;12316;50.904;4.200;2022-11-03T13:06:17;17.20;99.90
24158;DHT22;12316;50.904;4.200;2022-11-03T13:08:42;17.10;99.90
24158;DHT22;12316;50.904;4.200;2022-11-03T13:11:08;17.10;99.90
24158;DHT22;12316;50.904;4.200;2022-11-03T13:13:52;17.10;99.90
24158;DHT22;12316;50.904;4.200;2022-11-03T13:16:18;17.00;99.90
24158;DHT22;12316;50.904;4.200;2022-11-03T13:18:44;16.90;99.90
24158;DHT22;12316;50.904;4.200;2022-11-03T13:21:10;16.90;99.90
24158;DHT22;12316;50.904;4.200;2022-11-03T13:23:35;16.90;99.90
24158;DHT22;12316;50.904;4.200;2022-11-03T13:26:01;16.90;99.90
24158;DHT22;12316;50.904;4.200;2022-11-03T13:28:26;16.80;99.90
24158;DHT22;12316;50.904;4.200;2022-11-03T13:30:52;16.90;99.90
24158;DHT22;12316;50.904;4.200;2022-11-03T13:33:17;16.90;99.90
24158;DHT22;12316;50.904;4.200;2022-11-03T13:35:43;16.90;99.90
24158;DHT22;12316;50.904;4.200;2022-11-03T13:38:09;17.00;99.90
24158;DHT22;12316;50.904;4.200;2022-11-03T13:40:34;17.00;99.90
24158;DHT22;12316;50.904;4.200;2022-11-03T13:43:00;17.00;99.90
24158;DHT22;12316;50.904;4.200;2022-11-03T13:45:26;17.10;99.90
24158;DHT22;12316;50.904;4.200;2022-11-03T13:48:17;17.20;99.90
24158;DHT22;12316;50.904;4.200;2022-11-03T13:50:45;17.30;99.90
24158;DHT22;12316;50.904;4.200;2022-11-03T13:53:14;17.20;99.90
24158;DHT22;12316;50.904;4.200;2022-11-03T13:55:40;17.10;99.90
24158;DHT22;12316;50.904;4.200;2022-11-03T13:58:06;17.00;99.90
24158;DHT22;12316;50.904;4.200;2022-11-03T14:00:31;16.90;99.90
24158;DHT22;12316;50.904;4.200;2022-11-03T14:02:57;16.70;99.90
24158;DHT22;12316;50.904;4.200;2022-11-03T14:05:23;16.70;99.90
24158;DHT22;12316;50.904;4.200;2022-11-03T14:07:48;16.70;99.90
24158;DHT22;12316;50.904;4.200;2022-11-03T14:10:15;16.60;99.90
24158;DHT22;12316;50.904;4.200;2022-11-03T14:12:40;16.60;99.90
24158;DHT22;12316;50.904;4.200;2022-11-03T14:15:08;16.50;99.90
24158;DHT22;12316;50.904;4.200;2022-11-03T14:17:35;16.50;99.90
24158;DHT22;12316;50.904;4.200;2022-11-03T14:20:02;16.50;99.90
24158;DHT22;12316;50.904;4.200;2022-11-03T14:22:28;16.40;99.90
24158;DHT22;12316;50.904;4.200;2022-11-03T14:24:55;16.40;99.90
24158;DHT22;12316;50.904;4.200;2022-11-03T14:27:20;16.30;99.90
24158;DHT22;12316;50.904;4.200;2022-11-03T14:29:46;16.40;99.90
24158;DHT22;12316;50.904;4.200;2022-11-03T14:32:16;16.30;99.90
24158;DHT22;12316;50.904;4.200;2022-11-03T14:34:42;16.30;99.90
24158;DHT22;12316;50.904;4.200;2022-11-03T14:37:09;16.20;99.90
24158;DHT22;12316;50.904;4.200;2022-11-03T14:39:35;16.20;99.90
24158;DHT22;12316;50.904;4.200;2022-11-03T14:42:07;16.10;99.90
24158;DHT22;12316;50.904;4.200;2022-11-03T14:44:37;16.10;99.90
24158;DHT22;12316;50.904;4.200;2022-11-03T14:47:05;16.10;99.90
24158;DHT22;12316;50.904;4.200;2022-11-03T14:49:33;16.00;99.90
24158;DHT22;12316;50.904;4.200;2022-11-03T14:52:00;16.00;99.90
24158;DHT22;12316;50.904;4.200;2022-11-03T14:54:27;15.90;99.90
24158;DHT22;12316;50.904;4.200;2022-11-03T14:56:52;15.90;99.90
24158;DHT22;12316;50.904;4.200;2022-11-03T14:59:19;15.80;99.90
24158;DHT22;12316;50.904;4.200;2022-11-03T15:01:45;15.80;99.90
24158;DHT22;12316;50.904;4.200;2022-11-03T15:04:11;15.80;99.90
24158;DHT22;12316;50.904;4.200;2022-11-03T15:06:38;15.80;99.90
24158;DHT22;12316;50.904;4.200;2022-11-03T15:09:04;15.80;99.90
24158;DHT22;12316;50.904;4.200;2022-11-03T15:11:30;15.70;99.90
24158;DHT22;12316;50.904;4.200;2022-11-03T15:13:56;15.70;99.90
24158;DHT22;12316;50.904;4.200;2022-11-03T15:16:22;15.60;99.90
24158;DHT22;12316;50.904;4.200;2022-11-03T15:18:48;15.50;99.90
24158;DHT22;12316;50.904;4.200;2022-11-03T15:21:14;15.50;99.90
24158;DHT22;12316;50.904;4.200;2022-11-03T15:23:40;15.50;99.90
24158;DHT22;12316;50.904;4.200;2022-11-03T15:26:06;15.40;99.90
24158;DHT22;12316;50.904;4.200;2022-11-03T15:28:32;15.30;99.90
24158;DHT22;12316;50.904;4.200;2022-11-03T15:30:59;15.30;99.90
24158;DHT22;12316;50.904;4.200;2022-11-03T15:33:25;15.20;99.90
24158;DHT22;12316;50.904;4.200;2022-11-03T15:35:50;15.20;99.90
24158;DHT22;12316;50.904;4.200;2022-11-03T15:38:16;15.10;99.90
24158;DHT22;12316;50.904;4.200;2022-11-03T15:40:42;15.10;99.90
24158;DHT22;12316;50.904;4.200;2022-11-03T15:43:07;15.00;99.90
24158;DHT22;12316;50.904;4.200;2022-11-03T15:45:34;14.90;99.90
24158;DHT22;12316;50.904;4.200;2022-11-03T15:48:00;14.90;99.90
24158;DHT22;12316;50.904;4.200;2022-11-03T15:50:26;14.80;99.90
24158;DHT22;12316;50.904;4.200;2022-11-03T15:52:53;14.80;99.90
24158;DHT22;12316;50.904;4.200;2022-11-03T15:55:19;14.80;99.90
24158;DHT22;12316;50.904;4.200;2022-11-03T15:57:46;14.70;99.90
24158;DHT22;12316;50.904;4.200;2022-11-03T16:00:13;14.70;99.90
24158;DHT22;12316;50.904;4.200;2022-11-03T16:02:39;14.60;99.90
24158;DHT22;12316;50.904;4.200;2022-11-03T16:05:05;14.60;99.90
24158;DHT22;12316;50.904;4.200;2022-11-03T16:07:31;14.50;99.90
24158;DHT22;12316;50.904;4.200;2022-11-03T16:09:57;14.50;99.90
24158;DHT22;12316;50.904;4.200;2022-11-03T16:12:23;14.40;99.90
24158;DHT22;12316;50.904;4.200;2022-11-03T16:14:51;14.40;99.90
24158;DHT22;12316;50.904;4.200;2022-11-03T16:17:16;14.40;99.90
24158;DHT22;12316;50.904;4.200;2022-11-03T16:19:42;14.30;99.90
24158;DHT22;12316;50.904;4.200;2022-11-03T16:22:08;14.30;99.90
24158;DHT22;12316;50.904;4.200;2022-11-03T16:24:33;14.30;99.90
24158;DHT22;12316;50.904;4.200;2022-11-03T16:27:00;14.20;99.90
24158;DHT22;12316;50.904;4.200;2022-11-03T16:29:26;14.20;99.90
24158;DHT22;12316;50.904;4.200;2022-11-03T16:31:51;14.20;99.90
24158;DHT22;12316;50.904;4.200;2022-11-03T16:34:17;14.20;99.90
24158;DHT22;12316;50.904;4.200;2022-11-03T16:36:43;14.10;99.90
24158;DHT22;12316;50.904;4.200;2022-11-03T16:39:09;14.20;99.90
24158;DHT22;12316;50.904;4.200;2022-11-03T16:41:35;14.20;99.90
24158;DHT22;12316;50.904;4.200;2022-11-03T16:44:01;14.20;99.90
24158;DHT22;12316;50.904;4.200;2022-11-03T16:46:26;14.20;99.90
24158;DHT22;12316;50.904;4.200;2022-11-03T16:48:52;14.20;99.90
24158;DHT22;12316;50.904;4.200;2022-11-03T16:51:18;14.20;99.90
24158;DHT22;12316;50.904;4.200;2022-11-03T16:53:43;14.20;99.90
24158;DHT22;12316;50.904;4.200;2022-11-03T16:56:09;14.20;99.90
24158;DHT22;12316;50.904;4.200;2022-11-03T16:58:34;14.30;99.90
24158;DHT22;12316;50.904;4.200;2022-11-03T17:01:00;14.30;99.90
24158;DHT22;12316;50.904;4.200;2022-11-03T17:03:26;14.30;99.90
24158;DHT22;12316;50.904;4.200;2022-11-03T17:05:51;14.30;99.90
24158;DHT22;12316;50.904;4.200;2022-11-03T17:08:17;14.30;99.90
24158;DHT22;12316;50.904;4.200;2022-11-03T17:10:42;14.40;99.90
24158;DHT22;12316;50.904;4.200;2022-11-03T17:13:08;14.40;99.90
24158;DHT22;12316;50.904;4.200;2022-11-03T17:15:34;14.40;99.90
24158;DHT22;12316;50.904;4.200;2022-11-03T17:17:59;14.50;99.90
24158;DHT22;12316;50.904;4.200;2022-11-03T17:20:25;14.50;99.90